Time;durP1;ratioP1;P1;durP2;ratioP2;P2;SDS_P1;SDS_P2;PMS_P1;PMS_P2;Temp;Humidity;BMP_temperature;BMP_pressure;BME280_temperature;BME280_humidity;BME280_pressure;Samples;Min_cycle;Max_cycle;Signal;HPM_P1;HPM_P2
2022/08/01 00:01:51;;;;;;;4.47;4.00;;;18.20;99.90;;;;;;5002829;28;20199;-77
2022/08/01 00:04:16;;;;;;;4.05;3.47;;;18.30;99.90;;;;;;5003675;28;20351;-76
2022/08/01 00:06:42;;;;;;;4.03;3.50;;;18.30;99.90;;;;;;5003241;28;20552;-76
2022/08/01 00:09:07;;;;;;;4.68;4.22;;;18.40;99.90;;;;;;5003950;28;20558;-77
2022/08/01 00:11:33;;;;;;;1333.35;562.58;;;18.40;99.90;;;;;;5003899;28;20614;-77
2022/08/01 00:13:58;;;;;;;4.30;3.90;;;18.40;99.90;;;;;;5004288;28;20185;-75
2022/08/01 00:16:24;;;;;;;4.28;3.88;;;18.40;99.90;;;;;;5005106;28;20190;-76
2022/08/01 00:18:50;;;;;;;4.40;4.00;;;18.40;99.90;;;;;;5003257;28;20541;-77
2022/08/01 00:21:17;;;;;;;3.85;3.55;;;18.40;99.90;;;;;;5004024;28;20408;-77
2022/08/01 00:23:43;;;;;;;4.10;3.70;;;18.60;99.90;;;;;;5001822;28;20576;-77
2022/08/01 00:26:09;;;;;;;6.97;4.05;;;18.50;99.90;;;;;;5004371;28;20175;-75
2022/08/01 00:28:35;;;;;;;5.05;4.55;;;18.50;99.90;;;;;;5002576;28;20180;-76
2022/08/01 00:31:00;;;;;;;4.63;4.22;;;18.50;99.90;;;;;;5003709;28;20586;-75
2022/08/01 00:33:26;;;;;;;4.47;4.10;;;18.50;99.90;;;;;;5004393;28;20199;-78
2022/08/01 00:35:51;;;;;;;4.25;3.95;;;18.50;99.90;;;;;;5003257;28;20284;-76
2022/08/01 00:38:17;;;;;;;5.93;4.10;;;18.50;99.90;;;;;;5003676;28;20183;-77
2022/08/01 00:40:43;;;;;;;4.85;4.43;;;18.50;99.90;;;;;;5002043;28;20687;-77
2022/08/01 00:43:09;;;;;;;4.40;4.00;;;18.50;99.90;;;;;;5003218;28;20306;-75
2022/08/01 00:45:34;;;;;;;5.72;4.10;;;18.50;99.90;;;;;;5003372;28;20223;-77
2022/08/01 00:48:00;;;;;;;4.93;4.25;;;18.50;99.90;;;;;;5004036;28;20211;-77
2022/08/01 00:50:26;;;;;;;4.50;4.10;;;18.50;99.90;;;;;;5001819;28;20226;-77
2022/08/01 00:52:53;;;;;;;4.40;4.00;;;18.60;99.90;;;;;;5003610;28;20203;-77
2022/08/01 00:55:20;;;;;;;4.03;3.75;;;18.60;99.90;;;;;;5003741;28;20187;-78
2022/08/01 00:57:46;;;;;;;4.93;4.40;;;18.60;99.90;;;;;;5003955;28;20183;-76
2022/08/01 01:00:12;;;;;;;5.18;4.07;;;18.60;99.90;;;;;;5004045;28;20294;-77
2022/08/01 01:02:38;;;;;;;6.95;4.13;;;18.50;99.90;;;;;;5003962;28;20215;-75
2022/08/01 01:05:04;;;;;;;4.07;3.67;;;18.60;99.90;;;;;;5002961;28;20175;-77
2022/08/01 01:07:47;;;;;;;4.07;3.67;;;18.60;99.90;;;;;;5004122;28;20195;-77
2022/08/01 01:10:22;;;;;;;4.72;4.18;;;18.60;99.90;;;;;;5003183;28;20290;-77
2022/08/01 01:12:59;;;;;;;4.45;3.97;;;18.60;99.90;;;;;;5003593;28;20626;-78
2022/08/01 01:15:42;;;;;;;5.05;4.55;;;18.70;99.90;;;;;;5003277;28;20218;-74
2022/08/01 01:18:19;;;;;;;4.70;4.30;;;18.70;99.90;;;;;;5003730;28;20250;-78
2022/08/01 01:20:51;;;;;;;4.82;4.32;;;18.70;99.90;;;;;;5003360;28;20298;-76
2022/08/01 01:23:24;;;;;;;5.40;4.38;;;18.60;99.90;;;;;;5002431;28;20199;-77
2022/08/01 01:26:22;;;;;;;9.88;4.50;;;18.60;99.90;;;;;;5004216;28;20290;-77
2022/08/01 01:29:16;;;;;;;5.18;4.35;;;18.60;99.90;;;;;;5003065;28;20204;-75
2022/08/01 01:31:51;;;;;;;5.78;4.40;;;18.60;99.90;;;;;;5002071;28;20210;-77
2022/08/01 01:34:21;;;;;;;4.40;4.00;;;18.70;99.90;;;;;;5003074;28;20191;-74
2022/08/01 01:36:47;;;;;;;5.78;4.72;;;18.80;99.90;;;;;;5003795;28;20179;-77
2022/08/01 01:39:15;;;;;;;3.78;3.45;;;18.70;99.90;;;;;;5002683;28;20191;-77
2022/08/01 01:41:42;;;;;;;4.28;3.90;;;18.60;99.90;;;;;;5003358;28;20199;-77
2022/08/01 01:44:10;;;;;;;5.47;3.92;;;18.60;99.90;;;;;;5003064;28;20277;-77
2022/08/01 01:46:36;;;;;;;5.10;4.60;;;18.80;99.90;;;;;;5002788;28;20187;-75
2022/08/01 01:49:04;;;;;;;5.15;4.75;;;18.70;99.90;;;;;;5003107;28;20203;-77
2022/08/01 01:51:30;;;;;;;5.55;4.80;;;18.70;99.90;;;;;;5002166;28;20218;-77
2022/08/01 01:53:57;;;;;;;4.85;4.45;;;18.70;99.90;;;;;;5003487;28;20188;-77
2022/08/01 01:56:24;;;;;;;5.55;3.97;;;18.70;99.90;;;;;;5003828;28;20191;-77
2022/08/01 01:58:53;;;;;;;4.22;3.83;;;18.70;99.90;;;;;;5002703;28;20179;-76
2022/08/01 02:01:21;;;;;;;4.30;3.88;;;18.70;99.90;;;;;;5003478;28;20213;-76
2022/08/01 02:03:49;;;;;;;4.45;4.10;;;18.70;99.90;;;;;;5003017;28;20175;-77
2022/08/01 02:06:16;;;;;;;6.30;4.55;;;18.70;99.90;;;;;;5002160;28;20186;-75
2022/08/01 02:08:43;;;;;;;4.85;4.40;;;18.70;99.90;;;;;;5002582;28;20563;-77
2022/08/01 02:11:18;;;;;;;6.03;4.90;;;18.70;99.90;;;;;;5003076;28;20196;-75
2022/08/01 02:13:55;;;;;;;4.82;4.25;;;18.70;99.90;;;;;;5003098;28;20301;-77
2022/08/01 02:16:24;;;;;;;7.15;4.43;;;18.60;99.90;;;;;;5003974;28;20250;-75
2022/08/01 02:18:50;;;;;;;6.28;4.80;;;18.70;99.90;;;;;;5002571;28;20194;-77
2022/08/01 02:21:26;;;;;;;7.32;4.28;;;18.60;99.90;;;;;;5005975;28;20211;-74
2022/08/01 02:23:54;;;;;;;5.60;4.13;;;18.60;99.90;;;;;;5006688;28;20196;-77
2022/08/01 02:26:23;;;;;;;4.40;4.00;;;18.70;99.90;;;;;;5006999;28;20187;-76
2022/08/01 02:28:58;;;;;;;5.53;4.25;;;18.60;99.90;;;;;;5006851;28;20187;-75
2022/08/01 02:31:25;;;;;;;4.60;4.20;;;18.60;99.90;;;;;;5006599;28;20568;-77
2022/08/01 02:34:02;;;;;;;5.38;4.05;;;18.70;99.90;;;;;;5006665;28;20183;-77
2022/08/01 02:36:29;;;;;;;5.05;4.47;;;18.70;99.90;;;;;;5006635;28;20183;-76
2022/08/01 02:38:58;;;;;;;5.20;4.13;;;18.70;99.90;;;;;;5006180;28;20182;-76
2022/08/01 02:41:26;;;;;;;6.45;4.07;;;18.60;99.90;;;;;;5006885;28;20772;-76
2022/08/01 02:43:55;;;;;;;5.20;4.60;;;18.70;99.90;;;;;;5006233;28;20184;-76
2022/08/01 02:46:34;;;;;;;4.60;4.03;;;18.60;99.90;;;;;;5006724;28;20662;-77
2022/08/01 02:49:02;;;;;;;5.93;4.32;;;18.60;99.90;;;;;;5005791;28;20188;-77
2022/08/01 02:51:30;;;;;;;5.07;4.00;;;18.70;99.90;;;;;;5006714;28;20203;-77
2022/08/01 02:53:58;;;;;;;4.22;3.75;;;18.60;99.90;;;;;;5006516;28;20186;-76
2022/08/01 02:56:34;;;;;;;6.72;4.22;;;18.60;99.90;;;;;;5007912;28;20279;-78
2022/08/01 02:59:20;;;;;;;4.47;4.07;;;18.60;99.90;;;;;;5006564;28;20188;-77
2022/08/01 03:01:47;;;;;;;4.28;3.88;;;18.80;99.90;;;;;;5005673;28;20223;-75
2022/08/01 03:04:14;;;;;;;5.90;4.20;;;18.60;99.90;;;;;;5006802;28;20211;-75
2022/08/01 03:06:41;;;;;;;4.72;3.75;;;18.70;99.90;;;;;;5004898;28;20739;-75
2022/08/01 03:09:08;;;;;;;6.70;4.10;;;18.60;99.90;;;;;;5006406;28;20187;-75
2022/08/01 03:11:37;;;;;;;4.25;3.20;;;18.70;99.90;;;;;;5007054;28;20709;-77
2022/08/01 03:14:06;;;;;;;3.53;3.15;;;18.60;99.90;;;;;;5021759;28;20604;-77
2022/08/01 03:16:34;;;;;;;4.18;2.88;;;18.70;99.90;;;;;;5006696;28;20188;-78
2022/08/01 03:19:01;;;;;;;2.67;2.47;;;18.70;99.90;;;;;;5005367;28;20215;-75
2022/08/01 03:21:29;;;;;;;3.67;2.55;;;18.70;99.90;;;;;;5005730;28;20756;-78
2022/08/01 03:23:58;;;;;;;2.85;2.58;;;18.80;99.90;;;;;;5004588;28;20669;-77
2022/08/01 03:26:28;;;;;;;3.20;2.88;;;18.70;99.90;;;;;;5004869;28;20239;-77
2022/08/01 03:28:58;;;;;;;2.88;2.67;;;18.60;99.90;;;;;;5004793;28;20194;-75
2022/08/01 03:31:26;;;;;;;2.90;2.70;;;18.80;99.90;;;;;;5005443;28;20642;-77
2022/08/01 03:33:52;;;;;;;3.22;2.55;;;18.80;99.90;;;;;;5005982;28;20658;-78
2022/08/01 03:36:22;;;;;;;3.20;2.90;;;18.70;99.90;;;;;;5006485;28;20742;-75
2022/08/01 03:38:51;;;;;;;2.67;2.47;;;18.70;99.90;;;;;;5005909;28;20188;-75
2022/08/01 03:41:20;;;;;;;3.50;2.90;;;18.70;99.90;;;;;;5004770;28;20214;-75
2022/08/01 03:44:00;;;;;;;2.90;2.70;;;18.70;99.90;;;;;;5005346;28;20180;-76
2022/08/01 03:46:32;;;;;;;2.88;2.45;;;18.60;99.90;;;;;;5005151;28;20270;-75
2022/08/01 03:49:03;;;;;;;2.90;2.17;;;18.50;99.90;;;;;;5003123;28;20529;-78
2022/08/01 03:51:30;;;;;;;3.05;2.63;;;18.40;99.90;;;;;;5006350;28;20195;-75
2022/08/01 03:53:56;;;;;;;2.97;2.78;;;18.30;99.90;;;;;;5004812;28;20240;-77
2022/08/01 03:56:23;;;;;;;2.65;2.45;;;18.30;99.90;;;;;;5005506;28;20171;-75
2022/08/01 03:58:50;;;;;;;2.67;2.47;;;18.20;99.90;;;;;;5004497;28;20182;-75
2022/08/01 04:01:16;;;;;;;2.63;2.20;;;18.20;99.90;;;;;;5004250;28;20208;-76
2022/08/01 04:03:43;;;;;;;2.95;2.65;;;18.20;99.90;;;;;;5004828;28;20176;-78
2022/08/01 04:06:10;;;;;;;3.00;2.70;;;18.20;99.90;;;;;;5004653;28;20187;-76
2022/08/01 04:08:40;;;;;;;3.58;2.42;;;18.20;99.90;;;;;;5004704;28;20210;-77
2022/08/01 04:11:07;;;;;;;2.67;2.45;;;18.20;99.90;;;;;;5004224;28;20203;-76
2022/08/01 04:13:33;;;;;;;2.60;2.40;;;18.30;99.90;;;;;;5004322;28;20266;-77
2022/08/01 04:15:58;;;;;;;2.55;2.35;;;18.30;99.90;;;;;;5004028;28;20274;-77
2022/08/01 04:18:24;;;;;;;2.25;2.05;;;18.30;99.90;;;;;;5004205;28;20187;-78
2022/08/01 04:20:50;;;;;;;2.47;2.20;;;18.30;99.90;;;;;;5003900;28;20231;-75
2022/08/01 04:23:18;;;;;;;2.20;2.10;;;18.30;99.90;;;;;;5004168;28;20259;-78
2022/08/01 04:25:45;;;;;;;2.70;2.13;;;18.40;99.90;;;;;;5003766;28;20206;-75
2022/08/01 04:28:17;;;;;;;3.13;2.25;;;18.30;99.90;;;;;;5002663;28;21002;-77
2022/08/01 04:30:45;;;;;;;1.98;1.88;;;18.40;99.90;;;;;;5003513;28;20746;-77
2022/08/01 04:33:15;;;;;;;2.55;2.35;;;18.40;99.90;;;;;;5003962;28;20273;-77
2022/08/01 04:35:45;;;;;;;2.38;2.20;;;18.40;99.90;;;;;;5003437;28;20450;-75
2022/08/01 04:38:16;;;;;;;2.38;2.17;;;18.40;99.90;;;;;;5004322;28;20175;-76
2022/08/01 04:40:45;;;;;;;2.20;2.10;;;18.40;99.90;;;;;;5002978;28;20715;-77
2022/08/01 04:43:11;;;;;;;2.05;1.95;;;18.40;99.90;;;;;;5003183;28;20211;-77
2022/08/01 04:45:38;;;;;;;2.13;2.03;;;18.50;99.90;;;;;;5004513;28;20187;-76
2022/08/01 04:48:09;;;;;;;2.60;2.40;;;18.60;99.90;;;;;;5003629;28;20175;-75
2022/08/01 04:50:36;;;;;;;2.15;1.95;;;18.70;99.90;;;;;;5004189;28;20641;-76
2022/08/01 04:53:02;;;;;;;2.50;2.30;;;18.80;99.90;;;;;;5004101;28;20841;-76
2022/08/01 04:55:28;;;;;;;2.53;2.33;;;18.90;99.90;;;;;;5004095;28;20187;-77
2022/08/01 04:57:54;;;;;;;2.92;2.72;;;18.90;99.90;;;;;;5003685;28;20249;-77
2022/08/01 05:00:20;;;;;;;3.20;2.90;;;18.90;99.90;;;;;;5003337;28;20211;-77
2022/08/01 05:02:46;;;;;;;3.40;3.20;;;19.00;99.90;;;;;;5003887;28;20214;-76
2022/08/01 05:05:11;;;;;;;4.30;3.60;;;18.90;99.90;;;;;;5002537;28;20598;-74
2022/08/01 05:07:37;;;;;;;4.25;3.83;;;19.00;99.90;;;;;;5004327;28;20187;-77
2022/08/01 05:10:04;;;;;;;4.20;3.53;;;19.00;99.90;;;;;;5003133;28;20192;-74
2022/08/01 05:12:31;;;;;;;4.72;4.10;;;19.00;99.90;;;;;;5004692;28;20207;-75
2022/08/01 05:14:57;;;;;;;4.20;3.80;;;19.00;99.90;;;;;;5004045;28;20257;-77
2022/08/01 05:17:23;;;;;;;3.85;3.55;;;19.00;99.90;;;;;;5002944;28;20191;-77
2022/08/01 05:19:48;;;;;;;4.15;3.78;;;19.00;99.90;;;;;;5003964;28;20213;-76
2022/08/01 05:22:14;;;;;;;6.25;4.15;;;19.00;99.90;;;;;;5004197;28;20221;-74
2022/08/01 05:24:40;;;;;;;4.30;4.00;;;19.00;99.90;;;;;;5004062;28;20195;-77
2022/08/01 05:27:09;;;;;;;3.95;3.65;;;18.90;99.90;;;;;;5002163;28;20278;-73
2022/08/01 05:29:35;;;;;;;3.90;3.60;;;18.80;99.90;;;;;;5002200;28;20649;-78
2022/08/01 05:32:01;;;;;;;3.90;3.60;;;18.70;99.90;;;;;;5003521;28;20241;-78
2022/08/01 05:34:26;;;;;;;3.47;3.17;;;18.70;99.90;;;;;;5003773;28;20270;-77
2022/08/01 05:36:52;;;;;;;4.10;3.70;;;18.90;99.90;;;;;;5003872;28;20698;-77
2022/08/01 05:39:18;;;;;;;4.53;4.13;;;18.70;99.90;;;;;;5003164;28;20215;-77
2022/08/01 05:41:43;;;;;;;5.45;4.95;;;18.80;99.90;;;;;;5003970;28;20195;-75
2022/08/01 05:44:09;;;;;;;5.72;5.22;;;18.90;99.90;;;;;;5001219;28;20333;-77
2022/08/01 05:46:35;;;;;;;5.80;5.20;;;18.90;99.90;;;;;;5003786;28;20176;-77
2022/08/01 05:49:03;;;;;;;5.70;5.20;;;19.00;99.90;;;;;;5001254;28;20218;-74
2022/08/01 05:51:29;;;;;;;5.57;5.13;;;19.30;99.90;;;;;;5002589;28;20215;-77
2022/08/01 05:53:55;;;;;;;4.80;4.40;;;19.50;99.90;;;;;;5002097;28;20739;-76
2022/08/01 05:56:21;;;;;;;4.90;4.50;;;19.70;99.90;;;;;;5006113;28;20552;-76
2022/08/01 05:58:49;;;;;;;4.38;3.97;;;19.80;99.90;;;;;;5007257;28;20669;-75
2022/08/01 06:01:15;;;;;;;5.38;4.97;;;19.80;99.90;;;;;;5007965;28;20211;-77
2022/08/01 06:03:40;;;;;;;5.47;4.97;;;19.80;99.90;;;;;;5005315;28;20222;-77
2022/08/01 06:06:06;;;;;;;5.25;4.75;;;19.70;99.90;;;;;;5007812;28;20199;-76
2022/08/01 06:08:32;;;;;;;5.03;4.63;;;19.70;99.90;;;;;;5007894;28;20187;-77
2022/08/01 06:10:57;;;;;;;3.92;3.63;;;20.00;99.90;;;;;;5007651;28;20207;-75
2022/08/01 06:13:23;;;;;;;3.47;3.17;;;20.50;99.90;;;;;;5008428;28;20754;-76
2022/08/01 06:15:49;;;;;;;3.00;2.80;;;20.50;99.90;;;;;;5006283;28;20788;-77
2022/08/01 06:18:15;;;;;;;4.45;4.05;;;20.30;99.90;;;;;;5007440;28;20195;-75
2022/08/01 06:20:41;;;;;;;4.78;4.38;;;20.00;99.90;;;;;;5006233;28;20599;-77
2022/08/01 06:23:06;;;;;;;5.35;4.95;;;19.80;99.90;;;;;;5007341;28;20199;-77
2022/08/01 06:25:33;;;;;;;5.57;5.18;;;19.60;99.90;;;;;;5007943;28;20184;-76
2022/08/01 06:27:59;;;;;;;5.93;5.35;;;19.50;99.90;;;;;;5007570;28;20215;-76
2022/08/01 06:30:24;;;;;;;6.05;5.55;;;19.50;99.90;;;;;;5005955;28;20183;-75
2022/08/01 06:32:50;;;;;;;6.30;5.68;;;20.00;99.90;;;;;;5007250;28;20218;-76
2022/08/01 06:35:16;;;;;;;6.35;5.82;;;19.90;99.90;;;;;;5007295;28;20555;-77
2022/08/01 06:37:41;;;;;;;5.47;4.82;;;20.10;99.90;;;;;;5008993;28;20203;-74
2022/08/01 06:40:09;;;;;;;5.40;4.90;;;20.60;99.90;;;;;;5008394;28;20199;-75
2022/08/01 06:42:35;;;;;;;4.30;3.90;;;21.00;99.90;;;;;;5008419;28;20199;-77
2022/08/01 06:45:06;;;;;;;4.75;4.35;;;21.00;99.90;;;;;;5007556;28;20190;-74
2022/08/01 06:47:32;;;;;;;4.45;3.97;;;21.10;99.90;;;;;;5004520;28;20577;-75
2022/08/01 06:49:57;;;;;;;6.10;4.30;;;21.00;99.90;;;;;;5005143;28;20314;-76
2022/08/01 06:52:23;;;;;;;3.70;3.40;;;21.00;99.90;;;;;;5007231;28;20211;-74
2022/08/01 06:54:49;;;;;;;4.00;3.70;;;20.90;99.90;;;;;;5006967;28;20183;-74
2022/08/01 06:57:14;;;;;;;4.70;3.67;;;20.80;99.90;;;;;;5008508;28;20195;-77
2022/08/01 06:59:40;;;;;;;3.65;3.35;;;20.80;99.90;;;;;;5007897;28;20212;-76
2022/08/01 07:02:06;;;;;;;3.67;3.38;;;21.00;99.90;;;;;;5006985;28;20199;-76
2022/08/01 07:04:32;;;;;;;2.75;2.55;;;21.90;99.90;;;;;;5004521;28;20730;-76
2022/08/01 07:06:57;;;;;;;2.20;2.00;;;22.70;99.90;;;;;;5001665;28;20185;-76
2022/08/01 07:09:23;;;;;;;2.90;2.20;;;23.50;99.90;;;;;;5003449;28;20721;-78
2022/08/01 07:11:50;;;;;;;1.95;1.85;;;24.00;99.90;;;;;;4997525;28;20223;-78
2022/08/01 07:14:16;;;;;;;1.95;1.85;;;24.10;57.40;;;;;;5005606;28;20222;-77
2022/08/01 07:16:41;;;;;;;1.80;1.70;;;23.60;68.40;;;;;;5002068;28;20222;-77
2022/08/01 07:19:07;;;;;;;1.48;1.38;;;23.40;99.90;;;;;;5001516;28;20585;-77
2022/08/01 07:21:33;;;;;;;1.95;1.60;;;23.30;94.90;;;;;;5003390;28;20215;-76
2022/08/01 07:23:59;;;;;;;1.40;1.30;;;23.20;99.90;;;;;;5002341;28;20192;-77
2022/08/01 07:26:26;;;;;;;2.13;1.55;;;22.90;99.90;;;;;;5000039;28;20707;-77
2022/08/01 07:28:52;;;;;;;3.08;1.40;;;22.40;99.90;;;;;;5002237;28;20848;-77
2022/08/01 07:31:17;;;;;;;1.42;1.33;;;22.10;99.90;;;;;;5003012;28;20180;-76
2022/08/01 07:33:43;;;;;;;2.25;1.30;;;21.60;99.90;;;;;;5005642;28;20188;-75
2022/08/01 07:36:08;;;;;;;1.60;1.30;;;21.40;99.90;;;;;;5007172;28;20437;-76
2022/08/01 07:38:34;;;;;;;1.80;1.70;;;21.20;99.90;;;;;;5006753;28;20184;-78
2022/08/01 07:40:59;;;;;;;2.55;1.83;;;21.10;99.90;;;;;;5005300;28;20200;-75
2022/08/01 07:43:25;;;;;;;1.80;1.70;;;21.10;99.90;;;;;;5007670;28;20196;-78
2022/08/01 07:45:50;;;;;;;1.27;1.05;;;21.20;99.90;;;;;;4998610;28;20676;-76
2022/08/01 07:48:18;;;;;;;1.05;1.00;;;21.20;99.90;;;;;;5006493;28;20713;-77
2022/08/01 07:50:44;;;;;;;1.05;0.90;;;20.90;99.90;;;;;;5003475;28;21401;-76
2022/08/01 07:53:10;;;;;;;1.33;1.23;;;20.50;99.90;;;;;;5004411;28;20211;-76
2022/08/01 07:55:36;;;;;;;1.30;1.25;;;20.10;99.90;;;;;;5004221;28;20809;-77
2022/08/01 07:58:01;;;;;;;2.15;1.33;;;20.00;99.90;;;;;;5005570;28;20275;-77
2022/08/01 08:00:28;;;;;;;1.30;1.20;;;20.00;99.90;;;;;;5005074;28;20234;-77
2022/08/01 08:02:54;;;;;;;1.50;1.40;;;19.90;99.90;;;;;;5005171;28;20218;-77
2022/08/01 08:05:20;;;;;;;2.03;1.45;;;19.80;99.90;;;;;;5005333;28;20650;-78
2022/08/01 08:07:45;;;;;;;2.65;1.50;;;19.90;99.90;;;;;;5005777;28;20187;-76
2022/08/01 08:10:11;;;;;;;2.13;1.35;;;20.20;99.90;;;;;;5005668;28;20195;-78
2022/08/01 08:12:37;;;;;;;1.20;1.10;;;20.50;99.90;;;;;;5006428;28;20226;-77
2022/08/01 08:15:05;;;;;;;1.00;1.00;;;21.00;99.90;;;;;;5006041;28;20187;-76
2022/08/01 08:17:31;;;;;;;1.10;1.00;;;21.30;99.90;;;;;;5006418;28;20334;-76
2022/08/01 08:19:57;;;;;;;1.30;1.20;;;21.70;99.90;;;;;;5005145;28;20276;-77
2022/08/01 08:22:24;;;;;;;1.75;1.35;;;21.90;99.90;;;;;;5006018;28;20287;-77
2022/08/01 08:24:49;;;;;;;1.73;1.50;;;21.90;99.90;;;;;;5004086;28;20244;-78
2022/08/01 08:27:15;;;;;;;1.30;1.20;;;22.40;99.90;;;;;;5005622;28;20206;-77
2022/08/01 08:29:41;;;;;;;1.40;1.30;;;22.30;99.90;;;;;;5004587;28;20205;-77
2022/08/01 08:32:07;;;;;;;1.80;1.33;;;22.40;99.90;;;;;;5001239;28;20214;-77
2022/08/01 08:34:33;;;;;;;2.60;1.30;;;22.70;99.90;;;;;;5005822;28;20195;-77
2022/08/01 08:36:59;;;;;;;2.35;1.38;;;23.00;99.90;;;;;;5005077;28;20569;-78
2022/08/01 08:39:25;;;;;;;1.60;1.30;;;23.00;99.90;;;;;;5006942;28;20279;-77
2022/08/01 08:41:51;;;;;;;1.17;1.13;;;23.00;99.90;;;;;;5006191;28;20206;-77
2022/08/01 08:44:18;;;;;;;2.13;1.60;;;23.00;99.60;;;;;;5005889;28;20183;-78
2022/08/01 08:46:48;;;;;;;1.33;1.20;;;23.20;99.90;;;;;;5006321;28;20206;-77
2022/08/01 08:49:20;;;;;;;1.45;1.10;;;23.30;92.10;;;;;;5005676;28;20169;-77
2022/08/01 08:51:49;;;;;;;2.92;1.42;;;23.60;24.00;;;;;;4999664;28;20459;-77
2022/08/01 08:54:16;;;;;;;1.33;1.23;;;23.30;88.90;;;;;;5004498;28;20182;-78
2022/08/01 08:56:43;;;;;;;1.10;1.10;;;23.10;99.90;;;;;;5004143;28;20263;-78
2022/08/01 08:59:13;;;;;;;1.05;0.75;;;23.10;43.60;;;;;;5005035;28;20241;-77
2022/08/01 09:01:39;;;;;;;1.13;1.10;;;23.30;63.10;;;;;;5004875;28;20692;-77
2022/08/01 09:04:05;;;;;;;1.02;1.02;;;23.60;62.90;;;;;;5003737;28;20204;-76
2022/08/01 09:06:32;;;;;;;1.23;1.10;;;23.50;1.00;;;;;;5003524;28;20222;-76
2022/08/01 09:08:59;;;;;;;0.90;0.90;;;23.40;18.30;;;;;;5004965;28;20187;-76
2022/08/01 09:11:25;;;;;;;1.10;1.10;;;23.40;37.40;;;;;;5004550;28;20218;-77
2022/08/01 09:14:14;;;;;;;1.20;1.10;;;23.30;13.50;;;;;;5003492;28;20452;-77
2022/08/01 09:16:42;;;;;;;1.30;1.20;;;23.00;63.50;;;;;;5010039;28;20184;-77
2022/08/01 09:19:19;;;;;;;1.88;0.98;;;23.10;58.30;;;;;;5003418;28;20443;-76
2022/08/01 09:21:59;;;;;;;1.30;1.20;;;23.20;31.80;;;;;;5003185;28;20766;-75
2022/08/01 09:24:26;;;;;;;1.38;1.27;;;23.30;27.80;;;;;;5003294;28;20534;-75
2022/08/01 09:26:53;;;;;;;1.73;1.42;;;23.60;13.10;;;;;;5006597;28;20209;-76
2022/08/01 09:29:22;;;;;;;1.60;1.50;;;23.90;6.10;;;;;;5002421;28;20258;-77
2022/08/01 09:31:49;;;;;;;1.60;1.50;;;24.10;1.00;;;;;;5001695;28;20677;-80
2022/08/01 09:34:16;;;;;;;1.52;1.40;;;23.90;1.00;;;;;;5002809;28;20187;-80
2022/08/01 09:36:58;;;;;;;1.80;1.70;;;23.50;1.00;;;;;;4999137;28;20191;-80
2022/08/01 09:39:45;;;;;;;1.80;1.70;;;23.10;1.00;;;;;;5003894;28;20198;-79
2022/08/01 09:42:30;;;;;;;1.52;1.42;;;22.80;1.00;;;;;;5005793;28;20245;-79
2022/08/01 09:44:56;;;;;;;2.60;2.17;;;22.50;19.80;;;;;;5008632;28;20199;-78
2022/08/01 09:47:36;;;;;;;2.97;2.70;;;22.40;14.60;;;;;;5006284;28;20175;-77
2022/08/01 09:50:01;;;;;;;2.72;2.53;;;22.40;1.50;;;;;;5005889;28;20186;-79
2022/08/01 09:52:27;;;;;;;2.97;2.67;;;22.50;1.00;;;;;;5010588;28;20207;-78
2022/08/01 09:55:00;;;;;;;2.97;2.75;;;22.40;29.30;;;;;;5010223;28;21114;-78
2022/08/01 09:57:27;;;;;;;4.10;3.17;;;22.60;29.90;;;;;;5016590;28;20848;-78
2022/08/01 09:59:56;;;;;;;3.40;3.20;;;22.40;40.40;;;;;;4998838;28;20729;-78
2022/08/01 10:02:35;;;;;;;3.58;3.38;;;22.20;52.20;;;;;;5013614;28;20246;-78
2022/08/01 10:05:03;;;;;;;3.67;3.42;;;22.20;46.60;;;;;;5004900;28;20194;-78
2022/08/01 10:07:29;;;;;;;3.40;3.20;;;21.90;52.30;;;;;;5005925;28;20242;-79
2022/08/01 10:09:55;;;;;;;3.17;2.97;;;21.90;5.30;;;;;;5005215;28;20254;-78
2022/08/01 10:12:23;;;;;;;3.00;2.80;;;21.80;5.20;;;;;;5005514;28;20203;-78
2022/08/01 10:14:51;;;;;;;2.92;2.72;;;21.80;36.70;;;;;;5006176;28;20196;-79
2022/08/01 10:17:19;;;;;;;2.28;2.17;;;22.10;30.30;;;;;;5008225;28;20191;-78
2022/08/01 10:19:45;;;;;;;1.88;1.77;;;22.30;9.40;;;;;;5005012;28;20203;-78
2022/08/01 10:22:16;;;;;;;1.50;1.40;;;22.80;1.00;;;;;;5008011;28;20514;-79
2022/08/01 10:24:44;;;;;;;2.92;1.58;;;23.10;1.00;;;;;;5006119;28;20184;-78
2022/08/01 10:27:10;;;;;;;1.48;1.38;;;23.20;1.00;;;;;;5006693;28;20199;-79
2022/08/01 10:29:46;;;;;;;1.30;1.20;;;23.10;1.00;;;;;;5004193;28;20175;-78
2022/08/01 10:32:12;;;;;;;2.08;1.60;;;23.00;1.00;;;;;;5006859;28;20724;-79
2022/08/01 10:34:37;;;;;;;0.98;0.98;;;23.40;1.00;;;;;;5006749;28;20187;-79
2022/08/01 10:37:05;;;;;;;2.22;1.50;;;23.80;1.00;;;;;;5006974;28;20776;-79
2022/08/01 10:39:32;;;;;;;1.40;1.30;;;24.20;1.00;;;;;;5007151;28;20210;-78
2022/08/01 10:41:59;;;;;;;1.45;1.35;;;24.60;1.00;;;;;;5009085;28;20208;-78
2022/08/01 10:44:26;;;;;;;1.77;1.60;;;24.30;1.00;;;;;;5010772;28;20569;-78
2022/08/01 10:46:59;;;;;;;1.60;1.50;;;23.90;1.00;;;;;;5010781;28;20245;-78
2022/08/01 10:49:29;;;;;;;2.03;1.25;;;23.80;1.00;;;;;;5010351;28;20260;-77
2022/08/01 10:51:56;;;;;;;1.35;1.25;;;23.60;1.00;;;;;;5011909;28;20203;-78
2022/08/01 10:54:25;;;;;;;1.48;1.38;;;23.70;1.00;;;;;;5011891;28;20180;-78
2022/08/01 10:56:52;;;;;;;1.25;1.15;;;23.90;1.00;;;;;;5009318;28;20184;-79
2022/08/01 10:59:28;;;;;;;2.42;1.33;;;24.20;1.00;;;;;;5010663;28;20187;-79
2022/08/01 11:02:04;;;;;;;1.42;1.33;;;24.30;99.90;;;;;;5010874;28;20207;-78
2022/08/01 11:04:55;;;;;;;1.95;1.45;;;24.30;1.00;;;;;;5011358;28;20183;-79
2022/08/01 11:07:34;;;;;;;1.73;1.40;;;24.20;1.00;;;;;;5010266;28;20211;-78
2022/08/01 11:10:25;;;;;;;2.80;1.35;;;24.30;99.90;;;;;;5010173;28;20220;-79
2022/08/01 11:12:51;;;;;;;1.60;1.50;;;24.20;99.90;;;;;;5008437;28;20234;-79
2022/08/01 11:15:24;;;;;;;1.55;1.45;;;23.80;16.20;;;;;;5010270;28;20673;-78
2022/08/01 11:17:52;;;;;;;1.40;1.30;;;23.70;99.90;;;;;;5009640;28;20198;-78
2022/08/01 11:20:21;;;;;;;1.35;1.25;;;23.80;99.90;;;;;;5008618;28;20223;-79
2022/08/01 11:23:05;;;;;;;1.95;1.23;;;23.60;10.10;;;;;;5008706;28;20206;-79
2022/08/01 11:25:33;;;;;;;2.70;1.20;;;23.50;1.00;;;;;;5010125;28;20424;-79
2022/08/01 11:28:15;;;;;;;1.45;1.35;;;23.60;1.00;;;;;;5010350;28;20237;-78
2022/08/01 11:30:42;;;;;;;2.25;1.40;;;23.80;1.00;;;;;;5009638;28;20186;-79
2022/08/01 11:33:09;;;;;;;1.88;1.70;;;23.90;99.90;;;;;;5009714;28;20208;-77
2022/08/01 11:35:36;;;;;;;1.65;1.55;;;23.90;99.90;;;;;;5008447;28;20191;-76
2022/08/01 11:38:29;;;;;;;2.78;1.30;;;24.00;1.00;;;;;;5009462;28;20627;-79
2022/08/01 11:41:14;;;;;;;1.67;1.58;;;23.80;1.00;;;;;;5009930;28;20207;-78
2022/08/01 11:43:55;;;;;;;1.50;1.40;;;23.80;1.00;;;;;;5007789;28;20180;-79
2022/08/01 11:46:46;;;;;;;1.77;1.10;;;23.90;1.00;;;;;;5008569;28;20180;-78
2022/08/01 11:49:24;;;;;;;1.13;1.13;;;24.30;1.00;;;;;;5007526;28;20199;-78
2022/08/01 11:52:01;;;;;;;1.30;1.10;;;24.50;99.90;;;;;;5007593;28;20230;-79
2022/08/01 11:54:33;;;;;;;1.63;1.10;;;24.50;1.00;;;;;;5008535;28;20499;-78
2022/08/01 11:57:02;;;;;;;1.08;0.93;;;24.50;1.00;;;;;;5008996;28;20188;-78
2022/08/01 11:59:28;;;;;;;1.55;1.15;;;24.30;1.00;;;;;;5008753;28;20187;-78
2022/08/01 12:01:53;;;;;;;2.58;1.20;;;24.20;99.90;;;;;;5009176;28;20203;-78
2022/08/01 12:04:19;;;;;;;1.65;1.20;;;24.30;1.00;;;;;;5009759;28;20188;-78
2022/08/01 12:06:46;;;;;;;1.33;1.23;;;24.10;1.00;;;;;;5010041;28;20598;-78
2022/08/01 12:09:20;;;;;;;1.63;1.25;;;24.30;1.00;;;;;;5010128;28;20184;-79
2022/08/01 12:11:46;;;;;;;2.28;1.27;;;24.40;17.60;;;;;;5009662;28;21284;-78
2022/08/01 12:14:19;;;;;;;1.33;1.10;;;24.30;1.00;;;;;;5009630;28;20183;-79
2022/08/01 12:16:53;;;;;;;1.00;0.90;;;24.10;1.00;;;;;;5007849;28;20214;-79
2022/08/01 12:19:23;;;;;;;2.17;1.20;;;24.20;1.00;;;;;;5009312;28;20234;-78
2022/08/01 12:22:12;;;;;;;0.88;0.88;;;24.50;1.00;;;;;;5008201;28;20650;-79
2022/08/01 12:24:40;;;;;;;2.65;0.95;;;24.90;1.00;;;;;;5009389;28;20241;-77
2022/08/01 12:27:07;;;;;;;0.95;0.85;;;25.40;1.00;;;;;;5008828;28;20261;-78
2022/08/01 12:29:34;;;;;;;1.00;1.00;;;25.10;1.00;;;;;;5007873;28;20393;-78
2022/08/01 12:32:00;;;;;;;0.85;0.73;;;24.90;99.90;;;;;;5008479;28;20196;-78
2022/08/01 12:34:30;;;;;;;1.33;1.10;;;24.70;99.90;;;;;;5007567;28;20214;-77
2022/08/01 12:37:00;;;;;;;2.38;1.00;;;24.90;1.00;;;;;;5007904;28;20179;-78
2022/08/01 12:39:33;;;;;;;1.13;0.98;;;24.80;1.00;;;;;;5007844;28;20258;-77
2022/08/01 12:41:58;;;;;;;0.85;0.80;;;24.60;1.00;;;;;;5006108;28;20200;-77
2022/08/01 12:44:26;;;;;;;0.98;0.77;;;24.50;99.90;;;;;;5003871;28;20266;-77
2022/08/01 12:46:53;;;;;;;1.77;0.82;;;24.50;50.30;;;;;;5009538;28;20266;-77
2022/08/01 12:49:19;;;;;;;0.98;0.90;;;24.50;1.00;;;;;;5007213;28;20258;-78
2022/08/01 12:51:44;;;;;;;0.80;0.75;;;24.50;1.00;;;;;;5006935;28;20290;-77
2022/08/01 12:54:10;;;;;;;1.35;0.73;;;24.60;99.90;;;;;;5006076;28;20186;-78
2022/08/01 12:56:36;;;;;;;1.17;0.85;;;24.60;99.90;;;;;;5007955;28;20848;-78